Terminal Aerodrome Forecast
Issued by NWS

Home | Current Version | Previous Version | Text Only | Print | Product List | Glossary On
Versions: 1 2 3 4 5 6 7 8 9 10 11 12 13 14 15 16
867
FTUS46 KMFR 301739
TAFOTH
TAF
KOTH 301739Z 3018/3118 35008KT P6SM VCSH SCT015 SCT025 BKN040
     FM302100 35012G20KT P6SM SCT025 BKN040
     FM310300 36010KT P6SM SCT025 BKN050
     FM310500 13004KT P6SM BKN025 OVC035=

USA.gov is the U.S. government's official web portal to all federal, state and local government web resources and services.